PWSweather.com
Personal Weather Stations
Station Observations
IPORTUGA89
BarosaPT

BarosaPT

Lat: 39.754028, Lon: -8.843

Elevation: 98

Station Type: Davis Vp2

High Low Average
Temperature 77.5°F25.3°C 59.4°F15.2°C 66.4°F19.1°C
Dew Point 63.9°F17.7°C 57.4°F14.1°C 60.8°F16.0°C
Winds 10.1 mph 16.3 kmh Calm Calm 4.0 mph W6.4 kmh W
Wind Gusts 16.1 mph25.9 kmh -- 7.0 mph11.3 kmh
Humidity 94% 62% 83%
Pressure 30.16 in1021.3 mb 30.06 in1017.9 mb -
Precipitation 0.00 in0.0 mm - -
Hour Temp Dew Point Humidity Winds Wind Gusts Pressure Precip Precip Rate Daily Precip Total
12:09 AM 60.1°F15.6°C 58.1°F14.5°C 93% Calm Calm -- 30.07 in1018.3 mb 0.00 in0.0 mm 0.00 in0.0 mm 0.00 in0.0 mm
12:19 AM 60.3°F15.7°C 58.3°F14.6°C 93% Calm Calm 0.9 mph1.4 kmh 30.07 in1018.3 mb 0.00 in0.0 mm 0.00 in0.0 mm 0.00 in0.0 mm
12:29 AM 60.4°F15.8°C 58.6°F14.8°C 94% 0.9 mph WNW1.4 kmh WNW 2.0 mph3.2 kmh 30.07 in1018.3 mb 0.00 in0.0 mm 0.00 in0.0 mm 0.00 in0.0 mm
12:39 AM 60.4°F15.8°C 58.6°F14.8°C 94% Calm Calm -- 30.07 in1018.3 mb 0.00 in0.0 mm 0.00 in0.0 mm 0.00 in0.0 mm
12:49 AM 60.1°F15.6°C 58.1°F14.5°C 93% Calm Calm -- 30.07 in1018.3 mb 0.00 in0.0 mm 0.00 in0.0 mm 0.00 in0.0 mm
12:59 AM 59.7°F15.4°C 57.7°F14.3°C 93% Calm Calm 0.9 mph1.4 kmh 30.07 in1018.3 mb 0.00 in0.0 mm 0.00 in0.0 mm 0.00 in0.0 mm
01:10 AM 59.4°F15.2°C 57.4°F14.1°C 93% Calm Calm 2.0 mph3.2 kmh 30.07 in1018.3 mb 0.00 in0.0 mm 0.00 in0.0 mm 0.00 in0.0 mm
01:20 AM 59.5°F15.3°C 57.7°F14.3°C 94% Calm Calm 0.9 mph1.4 kmh 30.07 in1018.3 mb 0.00 in0.0 mm 0.00 in0.0 mm 0.00 in0.0 mm
01:30 AM 59.5°F15.3°C 57.7°F14.3°C 94% Calm Calm 0.9 mph1.4 kmh 30.07 in1018.3 mb 0.00 in0.0 mm 0.00 in0.0 mm 0.00 in0.0 mm
01:40 AM 59.7°F15.4°C 57.9°F14.4°C 94% Calm Calm -- 30.06 in1017.9 mb 0.00 in0.0 mm 0.00 in0.0 mm 0.00 in0.0 mm
01:50 AM 59.9°F15.5°C 58.1°F14.5°C 94% Calm Calm -- 30.06 in1017.9 mb 0.00 in0.0 mm 0.00 in0.0 mm 0.00 in0.0 mm
02:00 AM 60.1°F15.6°C 58.3°F14.6°C 94% Calm Calm -- 30.06 in1017.9 mb 0.00 in0.0 mm 0.00 in0.0 mm 0.00 in0.0 mm
02:10 AM 60.1°F15.6°C 58.3°F14.6°C 94% Calm Calm -- 30.06 in1017.9 mb 0.00 in0.0 mm 0.00 in0.0 mm 0.00 in0.0 mm
02:21 AM 60.1°F15.6°C 58.3°F14.6°C 94% Calm Calm -- 30.06 in1017.9 mb 0.00 in0.0 mm 0.00 in0.0 mm 0.00 in0.0 mm
02:31 AM 60.1°F15.6°C 58.3°F14.6°C 94% Calm Calm -- 30.06 in1017.9 mb 0.00 in0.0 mm 0.00 in0.0 mm 0.00 in0.0 mm
02:41 AM 60.3°F15.7°C 58.5°F14.7°C 94% Calm Calm -- 30.06 in1017.9 mb 0.00 in0.0 mm 0.00 in0.0 mm 0.00 in0.0 mm
02:51 AM 60.6°F15.9°C 58.8°F14.9°C 94% Calm Calm 2.9 mph4.7 kmh 30.06 in1017.9 mb 0.00 in0.0 mm 0.00 in0.0 mm 0.00 in0.0 mm
03:01 AM 61.2°F16.2°C 59.4°F15.2°C 94% 0.9 mph WNW1.4 kmh WNW 2.9 mph4.7 kmh 30.06 in1017.9 mb 0.00 in0.0 mm 0.00 in0.0 mm 0.00 in0.0 mm
03:11 AM 61.5°F16.4°C 59.7°F15.4°C 94% 2.0 mph NW3.2 kmh NW 4.0 mph6.4 kmh 30.06 in1017.9 mb 0.00 in0.0 mm 0.00 in0.0 mm 0.00 in0.0 mm
03:21 AM 61.7°F16.5°C 59.9°F15.5°C 94% 0.9 mph NW1.4 kmh NW 4.0 mph6.4 kmh 30.06 in1017.9 mb 0.00 in0.0 mm 0.00 in0.0 mm 0.00 in0.0 mm
03:31 AM 61.9°F16.6°C 60.1°F15.6°C 94% Calm Calm 2.0 mph3.2 kmh 30.06 in1017.9 mb 0.00 in0.0 mm 0.00 in0.0 mm 0.00 in0.0 mm
03:41 AM 61.9°F16.6°C 60.1°F15.6°C 94% 0.9 mph NNW1.4 kmh NNW 2.9 mph4.7 kmh 30.06 in1017.9 mb 0.00 in0.0 mm 0.00 in0.0 mm 0.00 in0.0 mm
03:51 AM 61.9°F16.6°C 60.1°F15.6°C 94% 0.9 mph NNW1.4 kmh NNW 2.9 mph4.7 kmh 30.06 in1017.9 mb 0.00 in0.0 mm 0.00 in0.0 mm 0.00 in0.0 mm
04:01 AM 62.1°F16.7°C 60.3°F15.7°C 94% 0.9 mph NNW1.4 kmh NNW 2.9 mph4.7 kmh 30.07 in1018.3 mb 0.00 in0.0 mm 0.00 in0.0 mm 0.00 in0.0 mm
04:11 AM 62.1°F16.7°C 60.3°F15.7°C 94% Calm Calm 2.0 mph3.2 kmh 30.07 in1018.3 mb 0.00 in0.0 mm 0.00 in0.0 mm 0.00 in0.0 mm
04:22 AM 62.1°F16.7°C 60.3°F15.7°C 94% 0.9 mph NW1.4 kmh NW 2.9 mph4.7 kmh 30.07 in1018.3 mb 0.00 in0.0 mm 0.00 in0.0 mm 0.00 in0.0 mm
04:32 AM 62.1°F16.7°C 60.3°F15.7°C 94% 2.0 mph NW3.2 kmh NW 4.0 mph6.4 kmh 30.07 in1018.3 mb 0.00 in0.0 mm 0.00 in0.0 mm 0.00 in0.0 mm
04:42 AM 62.2°F16.8°C 60.3°F15.7°C 93% 2.0 mph WNW3.2 kmh WNW 4.0 mph6.4 kmh 30.07 in1018.3 mb 0.00 in0.0 mm 0.00 in0.0 mm 0.00 in0.0 mm
04:52 AM 62.2°F16.8°C 60.3°F15.7°C 93% 2.0 mph NW3.2 kmh NW 4.0 mph6.4 kmh 30.07 in1018.3 mb 0.00 in0.0 mm 0.00 in0.0 mm 0.00 in0.0 mm
05:02 AM 62.2°F16.8°C 60.3°F15.7°C 93% 2.0 mph WNW3.2 kmh WNW 4.0 mph6.4 kmh 30.07 in1018.3 mb 0.00 in0.0 mm 0.00 in0.0 mm 0.00 in0.0 mm
05:12 AM 62.4°F16.9°C 60.4°F15.8°C 93% 2.0 mph WNW3.2 kmh WNW 2.9 mph4.7 kmh 30.07 in1018.3 mb 0.00 in0.0 mm 0.00 in0.0 mm 0.00 in0.0 mm
05:22 AM 62.4°F16.9°C 60.4°F15.8°C 93% 0.9 mph WNW1.4 kmh WNW 2.9 mph4.7 kmh 30.07 in1018.3 mb 0.00 in0.0 mm 0.00 in0.0 mm 0.00 in0.0 mm
05:32 AM 62.4°F16.9°C 60.4°F15.8°C 93% 0.9 mph WNW1.4 kmh WNW 2.9 mph4.7 kmh 30.07 in1018.3 mb 0.00 in0.0 mm 0.00 in0.0 mm 0.00 in0.0 mm
05:42 AM 62.4°F16.9°C 60.4°F15.8°C 93% 2.0 mph NW3.2 kmh NW 4.0 mph6.4 kmh 30.07 in1018.3 mb 0.00 in0.0 mm 0.00 in0.0 mm 0.00 in0.0 mm
05:52 AM 62.6°F17.0°C 60.3°F15.7°C 92% 2.0 mph NW3.2 kmh NW 4.0 mph6.4 kmh 30.08 in1018.6 mb 0.00 in0.0 mm 0.00 in0.0 mm 0.00 in0.0 mm
06:02 AM 62.4°F16.9°C 60.1°F15.6°C 92% 4.0 mph NNW6.4 kmh NNW 10.1 mph16.3 kmh 30.08 in1018.6 mb 0.00 in0.0 mm 0.00 in0.0 mm 0.00 in0.0 mm
06:12 AM 62.6°F17.0°C 59.9°F15.5°C 91% 2.9 mph NNW4.7 kmh NNW 4.0 mph6.4 kmh 30.08 in1018.6 mb 0.00 in0.0 mm 0.00 in0.0 mm 0.00 in0.0 mm
06:22 AM 62.6°F17.0°C 59.9°F15.5°C 91% 2.9 mph NNW4.7 kmh NNW 6.9 mph11.1 kmh 30.08 in1018.6 mb 0.00 in0.0 mm 0.00 in0.0 mm 0.00 in0.0 mm
06:32 AM 62.8°F17.1°C 60.1°F15.6°C 91% 2.0 mph N3.2 kmh N 4.9 mph7.9 kmh 30.09 in1019.0 mb 0.00 in0.0 mm 0.00 in0.0 mm 0.00 in0.0 mm
06:42 AM 62.8°F17.1°C 59.7°F15.4°C 90% 2.9 mph N4.7 kmh N 4.9 mph7.9 kmh 30.08 in1018.6 mb 0.00 in0.0 mm 0.00 in0.0 mm 0.00 in0.0 mm
06:52 AM 62.8°F17.1°C 59.7°F15.4°C 90% 2.9 mph NNW4.7 kmh NNW 4.0 mph6.4 kmh 30.09 in1019.0 mb 0.00 in0.0 mm 0.00 in0.0 mm 0.00 in0.0 mm
07:02 AM 62.8°F17.1°C 59.7°F15.4°C 90% 2.9 mph NW4.7 kmh NW 6.0 mph9.7 kmh 30.09 in1019.0 mb 0.00 in0.0 mm 0.00 in0.0 mm 0.00 in0.0 mm
07:12 AM 63.0°F17.2°C 59.7°F15.4°C 89% 2.9 mph NW4.7 kmh NW 6.0 mph9.7 kmh 30.09 in1019.0 mb 0.00 in0.0 mm 0.00 in0.0 mm 0.00 in0.0 mm
07:22 AM 63.0°F17.2°C 59.7°F15.4°C 89% 4.0 mph NW6.4 kmh NW 8.9 mph14.3 kmh 30.10 in1019.3 mb 0.00 in0.0 mm 0.00 in0.0 mm 0.00 in0.0 mm
07:32 AM 63.1°F17.3°C 59.9°F15.5°C 89% 2.9 mph NW4.7 kmh NW 4.9 mph7.9 kmh 30.10 in1019.3 mb 0.00 in0.0 mm 0.00 in0.0 mm 0.00 in0.0 mm
07:43 AM 63.3°F17.4°C 60.1°F15.6°C 89% 2.9 mph NW4.7 kmh NW 4.9 mph7.9 kmh 30.10 in1019.3 mb 0.00 in0.0 mm 0.00 in0.0 mm 0.00 in0.0 mm
07:53 AM 63.3°F17.4°C 59.7°F15.4°C 88% 2.9 mph NW4.7 kmh NW 4.0 mph6.4 kmh 30.10 in1019.3 mb 0.00 in0.0 mm 0.00 in0.0 mm 0.00 in0.0 mm
08:03 AM 63.7°F17.6°C 60.1°F15.6°C 88% 2.9 mph NNE4.7 kmh NNE 4.9 mph7.9 kmh 30.11 in1019.6 mb 0.00 in0.0 mm 0.00 in0.0 mm 0.00 in0.0 mm
08:13 AM 63.7°F17.6°C 60.1°F15.6°C 88% 2.9 mph N4.7 kmh N 4.9 mph7.9 kmh 30.11 in1019.6 mb 0.00 in0.0 mm 0.00 in0.0 mm 0.00 in0.0 mm
08:23 AM 63.9°F17.7°C 60.3°F15.7°C 88% 2.9 mph N4.7 kmh N 6.9 mph11.1 kmh 30.12 in1020.0 mb 0.00 in0.0 mm 0.00 in0.0 mm 0.00 in0.0 mm
08:33 AM 63.9°F17.7°C 59.9°F15.5°C 87% 4.0 mph NNE6.4 kmh NNE 8.1 mph13.0 kmh 30.12 in1020.0 mb 0.00 in0.0 mm 0.00 in0.0 mm 0.00 in0.0 mm
08:43 AM 63.9°F17.7°C 59.9°F15.5°C 87% 4.0 mph NE6.4 kmh NE 8.1 mph13.0 kmh 30.12 in1020.0 mb 0.00 in0.0 mm 0.00 in0.0 mm 0.00 in0.0 mm
08:53 AM 64.0°F17.8°C 60.1°F15.6°C 87% 2.0 mph NE3.2 kmh NE 4.0 mph6.4 kmh 30.12 in1020.0 mb 0.00 in0.0 mm 0.00 in0.0 mm 0.00 in0.0 mm
09:03 AM 64.4°F18.0°C 60.4°F15.8°C 87% 2.0 mph N3.2 kmh N 4.0 mph6.4 kmh 30.12 in1020.0 mb 0.00 in0.0 mm 0.00 in0.0 mm 0.00 in0.0 mm
09:13 AM 64.8°F18.2°C 60.4°F15.8°C 86% 2.0 mph NW3.2 kmh NW 6.0 mph9.7 kmh 30.12 in1020.0 mb 0.00 in0.0 mm 0.00 in0.0 mm 0.00 in0.0 mm
09:23 AM 65.1°F18.4°C 60.4°F15.8°C 85% 2.0 mph NNE3.2 kmh NNE 6.0 mph9.7 kmh 30.12 in1020.0 mb 0.00 in0.0 mm 0.00 in0.0 mm 0.00 in0.0 mm
09:33 AM 65.7°F18.7°C 60.6°F15.9°C 84% 4.0 mph NNW6.4 kmh NNW 8.9 mph14.3 kmh 30.13 in1020.3 mb 0.00 in0.0 mm 0.00 in0.0 mm 0.00 in0.0 mm
09:43 AM 66.4°F19.1°C 61.0°F16.1°C 83% 2.9 mph N4.7 kmh N 8.1 mph13.0 kmh 30.13 in1020.3 mb 0.00 in0.0 mm 0.00 in0.0 mm 0.00 in0.0 mm
09:53 AM 66.9°F19.4°C 61.2°F16.2°C 82% 2.9 mph N4.7 kmh N 4.9 mph7.9 kmh 30.12 in1020.0 mb 0.00 in0.0 mm 0.00 in0.0 mm 0.00 in0.0 mm
10:03 AM 67.8°F19.9°C 61.3°F16.3°C 80% 4.9 mph NE7.9 kmh NE 8.9 mph14.3 kmh 30.12 in1020.0 mb 0.00 in0.0 mm 0.00 in0.0 mm 0.00 in0.0 mm
10:13 AM 68.4°F20.2°C 61.5°F16.4°C 79% 2.9 mph ENE4.7 kmh ENE 8.1 mph13.0 kmh 30.12 in1020.0 mb 0.00 in0.0 mm 0.00 in0.0 mm 0.00 in0.0 mm
10:23 AM 69.3°F20.7°C 61.7°F16.5°C 77% 4.0 mph NE6.4 kmh NE 8.1 mph13.0 kmh 30.12 in1020.0 mb 0.00 in0.0 mm 0.00 in0.0 mm 0.00 in0.0 mm
10:33 AM 69.3°F20.7°C 61.3°F16.3°C 76% 4.0 mph NE6.4 kmh NE 8.1 mph13.0 kmh 30.12 in1020.0 mb 0.00 in0.0 mm 0.00 in0.0 mm 0.00 in0.0 mm
10:43 AM 70.0°F21.1°C 62.1°F16.7°C 76% 2.9 mph ENE4.7 kmh ENE 6.9 mph11.1 kmh 30.12 in1020.0 mb 0.00 in0.0 mm 0.00 in0.0 mm 0.00 in0.0 mm
10:53 AM 71.1°F21.7°C 62.4°F16.9°C 74% 4.0 mph NE6.4 kmh NE 8.1 mph13.0 kmh 30.12 in1020.0 mb 0.00 in0.0 mm 0.00 in0.0 mm 0.00 in0.0 mm
11:03 AM 71.2°F21.8°C 62.1°F16.7°C 73% 4.9 mph NW7.9 kmh NW 8.9 mph14.3 kmh 30.12 in1020.0 mb 0.00 in0.0 mm 0.00 in0.0 mm 0.00 in0.0 mm
11:13 AM 72.1°F22.3°C 62.6°F17.0°C 72% 2.9 mph ESE4.7 kmh ESE 6.9 mph11.1 kmh 30.12 in1020.0 mb 0.00 in0.0 mm 0.00 in0.0 mm 0.00 in0.0 mm
11:23 AM 73.0°F22.8°C 63.5°F17.5°C 72% 2.0 mph SW3.2 kmh SW 6.9 mph11.1 kmh 30.11 in1019.6 mb 0.00 in0.0 mm 0.00 in0.0 mm 0.00 in0.0 mm
11:34 AM 73.9°F23.3°C 63.1°F17.3°C 69% 2.9 mph SSE4.7 kmh SSE 8.1 mph13.0 kmh 30.11 in1019.6 mb 0.00 in0.0 mm 0.00 in0.0 mm 0.00 in0.0 mm
11:44 AM 75.0°F23.9°C 63.3°F17.4°C 67% 2.0 mph WSW3.2 kmh WSW 6.9 mph11.1 kmh 30.11 in1019.6 mb 0.00 in0.0 mm 0.00 in0.0 mm 0.00 in0.0 mm
11:54 AM 76.3°F24.6°C 63.7°F17.6°C 65% 4.0 mph NW6.4 kmh NW 8.9 mph14.3 kmh 30.11 in1019.6 mb 0.00 in0.0 mm 0.00 in0.0 mm 0.00 in0.0 mm
12:04 PM 76.5°F24.7°C 63.3°F17.4°C 64% 6.0 mph WSW9.7 kmh WSW 11.0 mph17.7 kmh 30.11 in1019.6 mb 0.00 in0.0 mm 0.00 in0.0 mm 0.00 in0.0 mm
12:14 PM 76.5°F24.7°C 63.3°F17.4°C 64% 4.9 mph N7.9 kmh N 11.0 mph17.7 kmh 30.11 in1019.6 mb 0.00 in0.0 mm 0.00 in0.0 mm 0.00 in0.0 mm
12:24 PM 76.3°F24.6°C 63.1°F17.3°C 64% 6.0 mph NW9.7 kmh NW 12.1 mph19.5 kmh 30.10 in1019.3 mb 0.00 in0.0 mm 0.00 in0.0 mm 0.00 in0.0 mm
12:34 PM 76.8°F24.9°C 63.3°F17.4°C 63% 4.9 mph NW7.9 kmh NW 12.1 mph19.5 kmh 30.10 in1019.3 mb 0.00 in0.0 mm 0.00 in0.0 mm 0.00 in0.0 mm
12:44 PM 77.4°F25.2°C 63.9°F17.7°C 63% 6.0 mph N9.7 kmh N 10.1 mph16.3 kmh 30.10 in1019.3 mb 0.00 in0.0 mm 0.00 in0.0 mm 0.00 in0.0 mm
12:54 PM 77.5°F25.3°C 63.5°F17.5°C 62% 6.0 mph WNW9.7 kmh WNW 14.1 mph22.7 kmh 30.10 in1019.3 mb 0.00 in0.0 mm 0.00 in0.0 mm 0.00 in0.0 mm
01:04 PM 77.4°F25.2°C 63.3°F17.4°C 62% 6.9 mph NW11.1 kmh NW 13.0 mph20.9 kmh 30.10 in1019.3 mb 0.00 in0.0 mm 0.00 in0.0 mm 0.00 in0.0 mm
01:14 PM 77.4°F25.2°C 63.9°F17.7°C 63% 6.0 mph NNW9.7 kmh NNW 11.0 mph17.7 kmh 30.10 in1019.3 mb 0.00 in0.0 mm 0.00 in0.0 mm 0.00 in0.0 mm
01:24 PM 77.4°F25.2°C 63.3°F17.4°C 62% 8.1 mph NW13.0 kmh NW 13.0 mph20.9 kmh 30.10 in1019.3 mb 0.00 in0.0 mm 0.00 in0.0 mm 0.00 in0.0 mm
01:34 PM 76.8°F24.9°C 63.3°F17.4°C 63% 8.1 mph NW13.0 kmh NW 13.0 mph20.9 kmh 30.10 in1019.3 mb 0.00 in0.0 mm 0.00 in0.0 mm 0.00 in0.0 mm
01:44 PM 76.8°F24.9°C 63.3°F17.4°C 63% 8.9 mph NW14.3 kmh NW 13.0 mph20.9 kmh 30.10 in1019.3 mb 0.00 in0.0 mm 0.00 in0.0 mm 0.00 in0.0 mm
01:54 PM 75.9°F24.4°C 62.8°F17.1°C 64% 10.1 mph NW16.3 kmh NW 15.0 mph24.1 kmh 30.10 in1019.3 mb 0.00 in0.0 mm 0.00 in0.0 mm 0.00 in0.0 mm
02:04 PM 76.3°F24.6°C 63.1°F17.3°C 64% 6.9 mph NW11.1 kmh NW 12.1 mph19.5 kmh 30.10 in1019.3 mb 0.00 in0.0 mm 0.00 in0.0 mm 0.00 in0.0 mm
02:14 PM 75.9°F24.4°C 62.8°F17.1°C 64% 8.9 mph NNW14.3 kmh NNW 14.1 mph22.7 kmh 30.10 in1019.3 mb 0.00 in0.0 mm 0.00 in0.0 mm 0.00 in0.0 mm
02:24 PM 76.1°F24.5°C 63.0°F17.2°C 64% 8.1 mph WNW13.0 kmh WNW 14.1 mph22.7 kmh 30.11 in1019.6 mb 0.00 in0.0 mm 0.00 in0.0 mm 0.00 in0.0 mm
02:34 PM 76.5°F24.7°C 63.3°F17.4°C 64% 6.9 mph NW11.1 kmh NW 12.1 mph19.5 kmh 30.11 in1019.6 mb 0.00 in0.0 mm 0.00 in0.0 mm 0.00 in0.0 mm
02:44 PM 76.1°F24.5°C 63.0°F17.2°C 64% 6.9 mph NW11.1 kmh NW 13.0 mph20.9 kmh 30.10 in1019.3 mb 0.00 in0.0 mm 0.00 in0.0 mm 0.00 in0.0 mm
02:54 PM 75.7°F24.3°C 62.8°F17.1°C 64% 8.1 mph N13.0 kmh N 13.0 mph20.9 kmh 30.10 in1019.3 mb 0.00 in0.0 mm 0.00 in0.0 mm 0.00 in0.0 mm
03:04 PM 74.5°F23.6°C 62.8°F17.1°C 67% 8.1 mph W13.0 kmh W 15.0 mph24.1 kmh 30.10 in1019.3 mb 0.00 in0.0 mm 0.00 in0.0 mm 0.00 in0.0 mm
03:14 PM 74.7°F23.7°C 63.0°F17.2°C 67% 8.1 mph WNW13.0 kmh WNW 16.1 mph25.9 kmh 30.10 in1019.3 mb 0.00 in0.0 mm 0.00 in0.0 mm 0.00 in0.0 mm
03:24 PM 74.7°F23.7°C 63.0°F17.2°C 67% 8.1 mph W13.0 kmh W 13.0 mph20.9 kmh 30.11 in1019.6 mb 0.00 in0.0 mm 0.00 in0.0 mm 0.00 in0.0 mm
03:34 PM 74.3°F23.5°C 63.1°F17.3°C 68% 8.1 mph N13.0 kmh N 13.0 mph20.9 kmh 30.11 in1019.6 mb 0.00 in0.0 mm 0.00 in0.0 mm 0.00 in0.0 mm
03:44 PM 73.9°F23.3°C 62.8°F17.1°C 68% 8.9 mph NNW14.3 kmh NNW 13.0 mph20.9 kmh 30.10 in1019.3 mb 0.00 in0.0 mm 0.00 in0.0 mm 0.00 in0.0 mm
03:54 PM 73.8°F23.2°C 63.0°F17.2°C 69% 8.1 mph WNW13.0 kmh WNW 13.0 mph20.9 kmh 30.10 in1019.3 mb 0.00 in0.0 mm 0.00 in0.0 mm 0.00 in0.0 mm
04:04 PM 73.4°F23.0°C 63.0°F17.2°C 70% 6.9 mph NW11.1 kmh NW 13.0 mph20.9 kmh 30.10 in1019.3 mb 0.00 in0.0 mm 0.00 in0.0 mm 0.00 in0.0 mm
04:14 PM 73.0°F22.8°C 62.2°F16.8°C 69% 6.9 mph WNW11.1 kmh WNW 12.1 mph19.5 kmh 30.10 in1019.3 mb 0.00 in0.0 mm 0.00 in0.0 mm 0.00 in0.0 mm
04:24 PM 73.0°F22.8°C 62.6°F17.0°C 70% 6.0 mph NW9.7 kmh NW 12.1 mph19.5 kmh 30.10 in1019.3 mb 0.00 in0.0 mm 0.00 in0.0 mm 0.00 in0.0 mm
04:34 PM 73.2°F22.9°C 62.8°F17.1°C 70% 6.0 mph NW9.7 kmh NW 11.0 mph17.7 kmh 30.10 in1019.3 mb 0.00 in0.0 mm 0.00 in0.0 mm 0.00 in0.0 mm
04:44 PM 72.7°F22.6°C 62.2°F16.8°C 70% 6.9 mph NW11.1 kmh NW 13.0 mph20.9 kmh 30.11 in1019.6 mb 0.00 in0.0 mm 0.00 in0.0 mm 0.00 in0.0 mm
04:54 PM 72.1°F22.3°C 62.6°F17.0°C 72% 6.0 mph NW9.7 kmh NW 12.1 mph19.5 kmh 30.11 in1019.6 mb 0.00 in0.0 mm 0.00 in0.0 mm 0.00 in0.0 mm
05:04 PM 71.2°F21.8°C 61.7°F16.5°C 72% 6.9 mph NW11.1 kmh NW 13.0 mph20.9 kmh 30.11 in1019.6 mb 0.00 in0.0 mm 0.00 in0.0 mm 0.00 in0.0 mm
05:14 PM 69.6°F20.9°C 61.3°F16.3°C 75% 8.1 mph NW13.0 kmh NW 15.0 mph24.1 kmh 30.12 in1020.0 mb 0.00 in0.0 mm 0.00 in0.0 mm 0.00 in0.0 mm
05:24 PM 68.7°F20.4°C 61.2°F16.2°C 77% 4.9 mph NW7.9 kmh NW 11.0 mph17.7 kmh 30.12 in1020.0 mb 0.00 in0.0 mm 0.00 in0.0 mm 0.00 in0.0 mm
05:34 PM 67.6°F19.8°C 61.0°F16.1°C 79% 4.9 mph W7.9 kmh W 8.9 mph14.3 kmh 30.12 in1020.0 mb 0.00 in0.0 mm 0.00 in0.0 mm 0.00 in0.0 mm
05:44 PM 66.7°F19.3°C 60.8°F16.0°C 81% 4.9 mph NW7.9 kmh NW 8.9 mph14.3 kmh 30.12 in1020.0 mb 0.00 in0.0 mm 0.00 in0.0 mm 0.00 in0.0 mm
05:54 PM 66.0°F18.9°C 60.4°F15.8°C 82% 4.9 mph NW7.9 kmh NW 11.0 mph17.7 kmh 30.13 in1020.3 mb 0.00 in0.0 mm 0.00 in0.0 mm 0.00 in0.0 mm
06:04 PM 65.7°F18.7°C 60.4°F15.8°C 83% 4.0 mph NW6.4 kmh NW 10.1 mph16.3 kmh 30.13 in1020.3 mb 0.00 in0.0 mm 0.00 in0.0 mm 0.00 in0.0 mm
06:14 PM 65.1°F18.4°C 60.1°F15.6°C 84% 4.9 mph N7.9 kmh N 10.1 mph16.3 kmh 30.13 in1020.3 mb 0.00 in0.0 mm 0.00 in0.0 mm 0.00 in0.0 mm
06:24 PM 64.9°F18.3°C 60.3°F15.7°C 85% 6.0 mph N9.7 kmh N 10.1 mph16.3 kmh 30.13 in1020.3 mb 0.00 in0.0 mm 0.00 in0.0 mm 0.00 in0.0 mm
06:34 PM 64.6°F18.1°C 60.3°F15.7°C 86% 6.0 mph NW9.7 kmh NW 11.0 mph17.7 kmh 30.14 in1020.7 mb 0.00 in0.0 mm 0.00 in0.0 mm 0.00 in0.0 mm
06:44 PM 64.4°F18.0°C 60.1°F15.6°C 86% 2.9 mph WNW4.7 kmh WNW 8.1 mph13.0 kmh 30.14 in1020.7 mb 0.00 in0.0 mm 0.00 in0.0 mm 0.00 in0.0 mm
06:54 PM 64.4°F18.0°C 60.4°F15.8°C 87% 4.0 mph NNW6.4 kmh NNW 8.9 mph14.3 kmh 30.14 in1020.7 mb 0.00 in0.0 mm 0.00 in0.0 mm 0.00 in0.0 mm
07:04 PM 64.4°F18.0°C 60.4°F15.8°C 87% 4.9 mph N7.9 kmh N 8.9 mph14.3 kmh 30.14 in1020.7 mb 0.00 in0.0 mm 0.00 in0.0 mm 0.00 in0.0 mm
07:14 PM 64.4°F18.0°C 60.8°F16.0°C 88% 4.0 mph NNW6.4 kmh NNW 10.1 mph16.3 kmh 30.14 in1020.7 mb 0.00 in0.0 mm 0.00 in0.0 mm 0.00 in0.0 mm
07:24 PM 64.2°F17.9°C 60.6°F15.9°C 88% 4.9 mph NW7.9 kmh NW 11.0 mph17.7 kmh 30.14 in1020.7 mb 0.00 in0.0 mm 0.00 in0.0 mm 0.00 in0.0 mm
07:34 PM 64.2°F17.9°C 60.6°F15.9°C 88% 4.0 mph NNW6.4 kmh NNW 8.9 mph14.3 kmh 30.14 in1020.7 mb 0.00 in0.0 mm 0.00 in0.0 mm 0.00 in0.0 mm
07:44 PM 64.2°F17.9°C 61.0°F16.1°C 89% 2.9 mph NW4.7 kmh NW 4.9 mph7.9 kmh 30.15 in1021.0 mb 0.00 in0.0 mm 0.00 in0.0 mm 0.00 in0.0 mm
07:54 PM 64.0°F17.8°C 60.4°F15.8°C 88% 6.0 mph NW9.7 kmh NW 10.1 mph16.3 kmh 30.15 in1021.0 mb 0.00 in0.0 mm 0.00 in0.0 mm 0.00 in0.0 mm
08:04 PM 64.0°F17.8°C 60.8°F16.0°C 89% 4.9 mph NNW7.9 kmh NNW 8.9 mph14.3 kmh 30.15 in1021.0 mb 0.00 in0.0 mm 0.00 in0.0 mm 0.00 in0.0 mm
08:15 PM 63.9°F17.7°C 60.6°F15.9°C 89% 4.0 mph N6.4 kmh N 8.9 mph14.3 kmh 30.16 in1021.3 mb 0.00 in0.0 mm 0.00 in0.0 mm 0.00 in0.0 mm
08:25 PM 63.9°F17.7°C 60.6°F15.9°C 89% 2.9 mph NNW4.7 kmh NNW 8.9 mph14.3 kmh 30.16 in1021.3 mb 0.00 in0.0 mm 0.00 in0.0 mm 0.00 in0.0 mm
08:35 PM 63.9°F17.7°C 60.6°F15.9°C 89% 4.9 mph WNW7.9 kmh WNW 8.9 mph14.3 kmh 30.16 in1021.3 mb 0.00 in0.0 mm 0.00 in0.0 mm 0.00 in0.0 mm
08:45 PM 63.7°F17.6°C 60.4°F15.8°C 89% 2.9 mph NW4.7 kmh NW 6.0 mph9.7 kmh 30.16 in1021.3 mb 0.00 in0.0 mm 0.00 in0.0 mm 0.00 in0.0 mm
08:55 PM 63.7°F17.6°C 60.4°F15.8°C 89% 4.9 mph 7.9 kmh 11.0 mph17.7 kmh 30.16 in1021.3 mb 0.00 in0.0 mm 0.00 in0.0 mm 0.00 in0.0 mm
09:05 PM 63.7°F17.6°C 60.6°F15.9°C 90% 2.0 mph 3.2 kmh 4.0 mph6.4 kmh 30.16 in1021.3 mb 0.00 in0.0 mm 0.00 in0.0 mm 0.00 in0.0 mm
09:15 PM 63.7°F17.6°C 60.6°F15.9°C 90% 4.0 mph NW6.4 kmh NW 8.1 mph13.0 kmh 30.16 in1021.3 mb 0.00 in0.0 mm 0.00 in0.0 mm 0.00 in0.0 mm
09:25 PM 63.5°F17.5°C 60.4°F15.8°C 90% 4.0 mph NNW6.4 kmh NNW 8.1 mph13.0 kmh 30.16 in1021.3 mb 0.00 in0.0 mm 0.00 in0.0 mm 0.00 in0.0 mm
09:35 PM 63.3°F17.4°C 60.3°F15.7°C 90% 2.9 mph WNW4.7 kmh WNW 6.0 mph9.7 kmh 30.16 in1021.3 mb 0.00 in0.0 mm 0.00 in0.0 mm 0.00 in0.0 mm
09:45 PM 63.3°F17.4°C 60.3°F15.7°C 90% 2.9 mph NNW4.7 kmh NNW 8.1 mph13.0 kmh 30.16 in1021.3 mb 0.00 in0.0 mm 0.00 in0.0 mm 0.00 in0.0 mm
09:55 PM 63.3°F17.4°C 60.3°F15.7°C 90% 4.0 mph N6.4 kmh N 6.9 mph11.1 kmh 30.16 in1021.3 mb 0.00 in0.0 mm 0.00 in0.0 mm 0.00 in0.0 mm
10:05 PM 63.3°F17.4°C 60.6°F15.9°C 91% 4.0 mph NNW6.4 kmh NNW 8.9 mph14.3 kmh 30.16 in1021.3 mb 0.00 in0.0 mm 0.00 in0.0 mm 0.00 in0.0 mm
10:15 PM 63.3°F17.4°C 60.6°F15.9°C 91% 2.9 mph NNW4.7 kmh NNW 6.0 mph9.7 kmh 30.16 in1021.3 mb 0.00 in0.0 mm 0.00 in0.0 mm 0.00 in0.0 mm
10:25 PM 63.3°F17.4°C 60.6°F15.9°C 91% 2.9 mph NNW4.7 kmh NNW 6.0 mph9.7 kmh 30.16 in1021.3 mb 0.00 in0.0 mm 0.00 in0.0 mm 0.00 in0.0 mm
10:35 PM 63.1°F17.3°C 60.4°F15.8°C 91% 4.9 mph N7.9 kmh N 8.9 mph14.3 kmh 30.16 in1021.3 mb 0.00 in0.0 mm 0.00 in0.0 mm 0.00 in0.0 mm
10:45 PM 63.1°F17.3°C 60.4°F15.8°C 91% 2.9 mph NNW4.7 kmh NNW 8.1 mph13.0 kmh 30.16 in1021.3 mb 0.00 in0.0 mm 0.00 in0.0 mm 0.00 in0.0 mm
10:55 PM 63.0°F17.2°C 60.3°F15.7°C 91% 2.9 mph NW4.7 kmh NW 8.1 mph13.0 kmh 30.16 in1021.3 mb 0.00 in0.0 mm 0.00 in0.0 mm 0.00 in0.0 mm
11:05 PM 63.0°F17.2°C 60.6°F15.9°C 92% 4.0 mph NNW6.4 kmh NNW 8.1 mph13.0 kmh 30.16 in1021.3 mb 0.00 in0.0 mm 0.00 in0.0 mm 0.00 in0.0 mm
11:15 PM 62.8°F17.1°C 60.4°F15.8°C 92% 4.0 mph N6.4 kmh N 8.1 mph13.0 kmh 30.16 in1021.3 mb 0.00 in0.0 mm 0.00 in0.0 mm 0.00 in0.0 mm
11:25 PM 62.8°F17.1°C 60.4°F15.8°C 92% 2.9 mph NW4.7 kmh NW 6.9 mph11.1 kmh 30.16 in1021.3 mb 0.00 in0.0 mm 0.00 in0.0 mm 0.00 in0.0 mm
11:35 PM 62.8°F17.1°C 60.4°F15.8°C 92% 2.9 mph N4.7 kmh N 4.0 mph6.4 kmh 30.16 in1021.3 mb 0.00 in0.0 mm 0.00 in0.0 mm 0.00 in0.0 mm
11:45 PM 63.0°F17.2°C 60.6°F15.9°C 92% 2.0 mph NNW3.2 kmh NNW 4.0 mph6.4 kmh 30.16 in1021.3 mb 0.00 in0.0 mm 0.00 in0.0 mm 0.00 in0.0 mm
11:55 PM 62.8°F17.1°C 60.1°F15.6°C 91% 0.9 mph NNW1.4 kmh NNW 2.9 mph4.7 kmh 30.15 in1021.0 mb 0.00 in0.0 mm 0.00 in0.0 mm 0.00 in0.0 mm